Terminal Aerodrome Forecast
Issued by NWS Boston, MA

Home | Current Version | Previous Version | Text Only | Print | Product List | Glossary On
Versions: 1 2 3 4 5 6 7 8 9 10 11 12 13 14 15 16 17 18 19 20 21 22 23 24 25 26 27 28 29 30 31 32 33 34 35 36 37 38 39 40 41 42 43 44 45 46 47 48
544
FTUS41 KBOX 170908 AAA
TAFBDL
TAF AMD
KBDL 170908Z 1709/1812 00000KT P6SM BKN080
     FM172000 VRB03KT 5SM -RA OVC060
     FM172300 00000KT 3SM -RA OVC025
     FM180000 00000KT 2SM -FZRASN OVC020
     FM180200 VRB03KT 3SM -FZRAPL OVC015
     FM180400 02004KT 3SM -RAPL OVC008
     FM180600 01006KT 3SM -RA OVC003
     FM181000 36007KT 3SM -DZ OVC008=

USA.gov is the U.S. government's official web portal to all federal, state and local government web resources and services.